Time;durP1;ratioP1;P1;durP2;ratioP2;P2;SDS_P1;SDS_P2;PMS_P1;PMS_P2;Temp;Humidity;BMP_temperature;BMP_pressure;BME280_temperature;BME280_humidity;BME280_pressure;Samples;Min_cycle;Max_cycle;Signal;HPM_P1;HPM_P2
2023/02/26 00:04:31;;;;;;;76.15;36.15;;;;;;;;;;10411970;28;20405;-87
2023/02/26 00:09:33;;;;;;;77.70;35.05;;;;;;;;;;10407936;28;20442;-86
2023/02/26 00:14:37;;;;;;;73.93;35.38;;;;;;;;;;10406539;28;20485;-87
2023/02/26 00:19:39;;;;;;;77.50;35.75;;;;;;;;;;10402643;28;20506;-87
2023/02/26 00:24:41;;;;;;;75.90;36.33;;;;;;;;;;10404483;28;20407;-88
2023/02/26 00:29:45;;;;;;;74.32;34.33;;;;;;;;;;10406199;28;20409;-86
2023/02/26 00:34:49;;;;;;;73.50;33.90;;;;;;;;;;10406405;28;20420;-88
2023/02/26 00:39:59;;;;;;;74.82;34.03;;;;;;;;;;10393189;28;20425;-87
2023/02/26 00:45:04;;;;;;;73.80;33.95;;;;;;;;;;10409357;28;20433;-88
2023/02/26 00:50:16;;;;;;;70.67;33.13;;;;;;;;;;10403073;28;20962;-88
2023/02/26 00:55:18;;;;;;;67.43;32.33;;;;;;;;;;10407039;28;20438;-88
2023/02/26 01:00:22;;;;;;;39.63;16.55;;;;;;;;;;10401597;28;20473;-87
2023/02/26 01:05:24;;;;;;;12.02;3.83;;;;;;;;;;10407544;28;20449;-87
2023/02/26 01:10:27;;;;;;;4.95;1.35;;;;;;;;;;10402925;28;20493;-87
2023/02/26 01:15:31;;;;;;;13.15;1.67;;;;;;;;;;10405378;28;20412;-87
2023/02/26 01:20:40;;;;;;;6.95;0.50;;;;;;;;;;10407402;28;20447;-87
2023/02/26 01:25:48;;;;;;;2.55;0.45;;;;;;;;;;10401906;28;20417;-87
2023/02/26 01:30:54;;;;;;;3.87;0.83;;;;;;;;;;10394178;28;20535;-87
2023/02/26 01:36:01;;;;;;;4.75;0.85;;;;;;;;;;10400196;28;21130;-86
2023/02/26 01:41:26;;;;;;;3.05;0.65;;;;;;;;;;10410388;28;20496;-89
2023/02/26 01:46:36;;;;;;;1.90;0.60;;;;;;;;;;10420266;28;20470;-89
2023/02/26 01:51:45;;;;;;;2.60;0.63;;;;;;;;;;10416376;28;20424;-91
2023/02/26 01:56:50;;;;;;;1.80;0.70;;;;;;;;;;10400564;28;20427;-90
2023/02/26 02:01:56;;;;;;;6.00;0.40;;;;;;;;;;10403763;28;20397;-90
2023/02/26 02:06:58;;;;;;;5.05;0.40;;;;;;;;;;10408807;28;20498;-89
2023/02/26 02:12:14;;;;;;;6.60;0.70;;;;;;;;;;10420561;28;21085;-90
2023/02/26 02:17:24;;;;;;;0.80;0.30;;;;;;;;;;10417812;28;20872;-90
2023/02/26 02:22:59;;;;;;;2.22;0.22;;;;;;;;;;10422604;28;20484;-90
2023/02/26 02:28:13;;;;;;;0.70;0.30;;;;;;;;;;10390098;28;20502;-89
2023/02/26 02:33:20;;;;;;;0.30;0.20;;;;;;;;;;10411821;28;20421;-89
2023/02/26 02:38:26;;;;;;;0.90;0.20;;;;;;;;;;10410106;28;20521;-91
2023/02/26 02:43:31;;;;;;;0.20;0.20;;;;;;;;;;10393580;28;20545;-91
2023/02/26 02:48:38;;;;;;;0.95;0.13;;;;;;;;;;10433161;28;20941;-90
2023/02/26 02:53:44;;;;;;;0.10;0.10;;;;;;;;;;10416502;28;20500;-89
2023/02/26 02:58:51;;;;;;;1.10;0.20;;;;;;;;;;10428754;28;20496;-90
2023/02/26 03:03:59;;;;;;;0.68;0.15;;;;;;;;;;10413911;28;20469;-90
2023/02/26 03:09:03;;;;;;;1.20;0.20;;;;;;;;;;10414709;28;20528;-89
2023/02/26 03:14:09;;;;;;;0.10;0.10;;;;;;;;;;10420606;28;20404;-90
2023/02/26 03:19:20;;;;;;;0.40;0.20;;;;;;;;;;10429215;28;20418;-89
2023/02/26 03:24:28;;;;;;;0.20;0.10;;;;;;;;;;10405388;28;20430;-89
2023/02/26 03:29:39;;;;;;;0.80;0.20;;;;;;;;;;10417969;28;20405;-88
2023/02/26 03:34:48;;;;;;;0.20;0.20;;;;;;;;;;10414243;28;20433;-89
2023/02/26 03:39:54;;;;;;;0.90;0.15;;;;;;;;;;10429578;28;20609;-91
2023/02/26 03:44:59;;;;;;;0.67;0.10;;;;;;;;;;10441749;28;20406;-91
2023/02/26 03:50:06;;;;;;;0.60;0.10;;;;;;;;;;10434610;28;20452;-90
2023/02/26 03:55:13;;;;;;;0.28;0.10;;;;;;;;;;10443938;28;20412;-90
2023/02/26 04:00:18;;;;;;;0.90;0.17;;;;;;;;;;10426213;28;20791;-90
2023/02/26 04:05:26;;;;;;;0.40;0.20;;;;;;;;;;10412334;28;20407;-91
2023/02/26 04:10:34;;;;;;;0.32;0.20;;;;;;;;;;10426639;28;20409;-90
2023/02/26 04:15:36;;;;;;;1.10;0.10;;;;;;;;;;10423220;28;20408;-90
2023/02/26 04:20:39;;;;;;;0.20;0.13;;;;;;;;;;10420541;28;20853;-91
2023/02/26 04:25:41;;;;;;;0.20;0.20;;;;;;;;;;10426203;28;20455;-91
2023/02/26 04:30:43;;;;;;;1.50;0.10;;;;;;;;;;10412166;28;20447;-90
2023/02/26 04:35:46;;;;;;;0.17;0.17;;;;;;;;;;10408431;28;20463;-89
2023/02/26 04:40:49;;;;;;;0.10;0.10;;;;;;;;;;10421238;28;20432;-90
2023/02/26 04:45:51;;;;;;;0.43;0.15;;;;;;;;;;10410987;28;20687;-89
2023/02/26 04:50:54;;;;;;;0.20;0.10;;;;;;;;;;10427306;28;20404;-90
2023/02/26 04:55:56;;;;;;;0.20;0.10;;;;;;;;;;10410191;28;20405;-89
2023/02/26 05:00:58;;;;;;;0.47;0.20;;;;;;;;;;10409775;28;20840;-90
2023/02/26 05:06:01;;;;;;;0.30;0.10;;;;;;;;;;10410740;28;20959;-90
2023/02/26 05:11:03;;;;;;;0.32;0.15;;;;;;;;;;10408182;28;20456;-89
2023/02/26 05:16:06;;;;;;;0.70;0.10;;;;;;;;;;10428975;28;20899;-90
2023/02/26 05:21:09;;;;;;;0.90;0.10;;;;;;;;;;10405314;28;20441;-90
2023/02/26 05:26:11;;;;;;;0.60;0.10;;;;;;;;;;10422839;28;20424;-89
2023/02/26 05:31:13;;;;;;;0.55;0.20;;;;;;;;;;10407411;28;20403;-89
2023/02/26 05:36:16;;;;;;;0.20;0.20;;;;;;;;;;10414158;28;20405;-91
2023/02/26 05:41:18;;;;;;;1.10;0.30;;;;;;;;;;10416679;28;20886;-89
2023/02/26 05:46:20;;;;;;;0.30;0.20;;;;;;;;;;10425875;28;20402;-90
2023/02/26 05:51:23;;;;;;;0.10;0.10;;;;;;;;;;10424278;28;20457;-90
2023/02/26 05:56:25;;;;;;;0.20;0.10;;;;;;;;;;10408343;28;20405;-91
2023/02/26 06:01:27;;;;;;;0.33;0.20;;;;;;;;;;10423183;28;20868;-90
2023/02/26 06:06:31;;;;;;;0.50;0.30;;;;;;;;;;10422706;28;20425;-90
2023/02/26 06:11:33;;;;;;;0.52;0.20;;;;;;;;;;10409149;28;20404;-90
2023/02/26 06:16:35;;;;;;;0.40;0.20;;;;;;;;;;10410031;28;20408;-90
2023/02/26 06:21:38;;;;;;;0.50;0.13;;;;;;;;;;10420411;28;20401;-90
2023/02/26 06:26:40;;;;;;;1.95;0.28;;;;;;;;;;10420666;28;20465;-90
2023/02/26 06:31:42;;;;;;;0.10;0.10;;;;;;;;;;10416519;28;20432;-90
2023/02/26 06:36:45;;;;;;;0.15;0.15;;;;;;;;;;10417116;28;20459;-90
2023/02/26 06:41:47;;;;;;;0.38;0.20;;;;;;;;;;10420639;28;20405;-90
2023/02/26 06:46:49;;;;;;;0.60;0.20;;;;;;;;;;10428165;28;20497;-91
2023/02/26 06:51:52;;;;;;;1.50;0.25;;;;;;;;;;10438677;28;20484;-90
2023/02/26 06:56:56;;;;;;;0.20;0.20;;;;;;;;;;10407942;28;20418;-91
2023/02/26 07:01:58;;;;;;;0.20;0.20;;;;;;;;;;10419546;28;20407;-91
2023/02/26 07:07:01;;;;;;;0.20;0.20;;;;;;;;;;10416224;28;20452;-90
2023/02/26 07:12:03;;;;;;;0.30;0.20;;;;;;;;;;10427841;28;20416;-90
2023/02/26 07:17:05;;;;;;;0.60;0.10;;;;;;;;;;10420138;28;20447;-90
2023/02/26 07:22:08;;;;;;;0.40;0.30;;;;;;;;;;10420673;28;20512;-90
2023/02/26 07:27:11;;;;;;;0.60;0.50;;;;;;;;;;10420152;28;20407;-89
2023/02/26 07:32:13;;;;;;;0.30;0.30;;;;;;;;;;10433237;28;20491;-91
2023/02/26 07:37:16;;;;;;;0.17;0.17;;;;;;;;;;10448795;28;20425;-91
2023/02/26 07:42:18;;;;;;;0.38;0.20;;;;;;;;;;10453604;28;20381;-90
2023/02/26 07:47:20;;;;;;;0.50;0.20;;;;;;;;;;10437835;28;20496;-90
2023/02/26 07:52:23;;;;;;;0.30;0.22;;;;;;;;;;10430668;28;20455;-91
2023/02/26 07:57:25;;;;;;;0.40;0.30;;;;;;;;;;10422409;28;20429;-91
2023/02/26 08:02:27;;;;;;;1.00;0.30;;;;;;;;;;10419591;28;20500;-90
2023/02/26 08:07:30;;;;;;;0.30;0.30;;;;;;;;;;10413681;28;20433;-89
2023/02/26 08:12:33;;;;;;;0.90;0.35;;;;;;;;;;10422540;28;20441;-90
2023/02/26 08:17:34;;;;;;;0.50;0.50;;;;;;;;;;10424559;28;20509;-89
2023/02/26 08:22:38;;;;;;;0.93;0.55;;;;;;;;;;10422117;28;20449;-89
2023/02/26 08:27:39;;;;;;;0.50;0.50;;;;;;;;;;10422398;28;20413;-88
2023/02/26 08:32:48;;;;;;;0.50;0.50;;;;;;;;;;10414705;28;20433;-89
2023/02/26 08:37:51;;;;;;;1.75;0.40;;;;;;;;;;10414565;28;20433;-87
2023/02/26 08:42:53;;;;;;;0.73;0.50;;;;;;;;;;10413102;28;20461;-89
2023/02/26 08:47:58;;;;;;;0.45;0.30;;;;;;;;;;10401347;28;20488;-88
2023/02/26 08:53:01;;;;;;;1.10;0.52;;;;;;;;;;10412165;28;20411;-88
2023/02/26 08:58:03;;;;;;;1.77;0.40;;;;;;;;;;10414669;28;20429;-89
2023/02/26 09:03:05;;;;;;;0.63;0.32;;;;;;;;;;10409462;28;20455;-88
2023/02/26 09:08:10;;;;;;;1.17;0.40;;;;;;;;;;10413649;28;20486;-87
2023/02/26 09:13:12;;;;;;;0.50;0.30;;;;;;;;;;10402041;28;20746;-86
2023/02/26 09:18:15;;;;;;;1.40;0.30;;;;;;;;;;10401113;28;20507;-89
2023/02/26 09:23:18;;;;;;;2.90;0.40;;;;;;;;;;10409358;28;21193;-90
2023/02/26 09:28:20;;;;;;;0.68;0.40;;;;;;;;;;10394398;28;20414;-88
2023/02/26 09:33:23;;;;;;;1.85;0.60;;;;;;;;;;10390820;28;20442;-88
2023/02/26 09:38:27;;;;;;;1.20;0.40;;;;;;;;;;10408073;28;20430;-87
2023/02/26 09:43:48;;;;;;;1.00;0.80;;;;;;;;;;10406527;28;20490;-91
2023/02/26 09:48:52;;;;;;;1.30;0.30;;;;;;;;;;10411223;28;20478;-92
2023/02/26 09:53:59;;;;;;;0.90;0.30;;;;;;;;;;10408837;28;20455;-91
2023/02/26 09:59:03;;;;;;;0.47;0.32;;;;;;;;;;10426880;28;20426;-91
2023/02/26 10:04:11;;;;;;;0.98;0.47;;;;;;;;;;10401621;28;20412;-95
2023/02/26 10:09:29;;;;;;;1.42;0.40;;;;;;;;;;10411593;28;20422;-86
2023/02/26 10:14:36;;;;;;;2.45;0.77;;;;;;;;;;10400429;28;20489;-87
2023/02/26 10:19:42;;;;;;;0.60;0.40;;;;;;;;;;10414013;28;20884;-87
2023/02/26 10:24:52;;;;;;;0.60;0.50;;;;;;;;;;10402841;28;20473;-86
2023/02/26 10:30:01;;;;;;;0.83;0.40;;;;;;;;;;10406117;28;20458;-87
2023/02/26 10:35:07;;;;;;;0.30;0.30;;;;;;;;;;10412133;28;20493;-87
2023/02/26 10:40:16;;;;;;;0.93;0.50;;;;;;;;;;10411213;28;20506;-86
2023/02/26 10:45:30;;;;;;;0.82;0.52;;;;;;;;;;10408882;28;21123;-87
2023/02/26 10:50:32;;;;;;;0.63;0.50;;;;;;;;;;10403306;28;20416;-86
2023/02/26 10:55:41;;;;;;;1.30;0.70;;;;;;;;;;10405594;28;20490;-87
2023/02/26 11:00:46;;;;;;;0.90;0.60;;;;;;;;;;10417597;28;20542;-88
2023/02/26 11:05:49;;;;;;;1.13;0.90;;;;;;;;;;10418585;28;20467;-87
2023/02/26 11:10:54;;;;;;;2.80;1.38;;;;;;;;;;10412009;28;20468;-88
2023/02/26 11:15:58;;;;;;;0.90;0.73;;;;;;;;;;10407862;28;20475;-88
2023/02/26 11:21:01;;;;;;;1.10;0.70;;;;;;;;;;10411744;28;20504;-88
2023/02/26 11:26:20;;;;;;;1.40;0.85;;;;;;;;;;10416938;28;20405;-87
2023/02/26 11:31:24;;;;;;;1.00;0.77;;;;;;;;;;10410538;28;20478;-87
2023/02/26 11:36:29;;;;;;;3.80;1.85;;;;;;;;;;10411930;28;20466;-88
2023/02/26 11:41:37;;;;;;;1.75;0.90;;;;;;;;;;10416452;28;20579;-87
2023/02/26 11:46:45;;;;;;;2.75;1.80;;;;;;;;;;10407106;28;20413;-88
2023/02/26 11:51:48;;;;;;;1.27;1.00;;;;;;;;;;10410347;28;20520;-87
2023/02/26 11:56:51;;;;;;;6.90;2.88;;;;;;;;;;10406591;28;20937;-87
2023/02/26 12:01:54;;;;;;;2.38;1.33;;;;;;;;;;10413811;28;20464;-88
2023/02/26 12:06:56;;;;;;;1.13;0.80;;;;;;;;;;10381226;28;20913;-87
2023/02/26 12:12:10;;;;;;;1.37;1.00;;;;;;;;;;10386165;22;20506;-84
2023/02/26 12:17:25;;;;;;;1.25;0.77;;;;;;;;;;10388436;28;20933;-82
2023/02/26 12:22:42;;;;;;;0.98;0.63;;;;;;;;;;10390093;28;20604;-84
2023/02/26 12:28:02;;;;;;;1.48;0.93;;;;;;;;;;10391032;28;20863;-84
2023/02/26 12:33:17;;;;;;;5.55;3.13;;;;;;;;;;10381427;28;20452;-83
2023/02/26 12:38:25;;;;;;;1.13;1.02;;;;;;;;;;10384916;28;20780;-83
2023/02/26 12:43:38;;;;;;;2.13;0.80;;;;;;;;;;10392436;28;20500;-83
2023/02/26 12:49:01;;;;;;;1.45;1.00;;;;;;;;;;10390408;28;20510;-84
2023/02/26 12:54:18;;;;;;;1.48;1.20;;;;;;;;;;10377319;28;20467;-86
2023/02/26 12:59:40;;;;;;;2.60;1.77;;;;;;;;;;10386959;28;20493;-83
2023/02/26 13:05:02;;;;;;;4.07;1.90;;;;;;;;;;10380963;28;20554;-84
2023/02/26 13:10:11;;;;;;;0.95;0.85;;;;;;;;;;10371338;28;20480;-83
2023/02/26 13:15:48;;;;;;;1.40;0.73;;;;;;;;;;10386114;28;20407;-84
2023/02/26 13:20:59;;;;;;;3.13;1.03;;;;;;;;;;10384640;28;20582;-84
2023/02/26 13:26:04;;;;;;;0.90;0.80;;;;;;;;;;10397010;28;20422;-84
2023/02/26 13:31:11;;;;;;;1.98;1.10;;;;;;;;;;10387447;28;20944;-84
2023/02/26 13:36:15;;;;;;;1.50;1.10;;;;;;;;;;10377991;28;20502;-84
2023/02/26 13:41:22;;;;;;;1.70;1.30;;;;;;;;;;10380964;28;20505;-85
2023/02/26 13:46:47;;;;;;;0.73;0.73;;;;;;;;;;10388442;28;20545;-83
2023/02/26 13:51:53;;;;;;;1.30;0.70;;;;;;;;;;10381848;28;20477;-84
2023/02/26 13:57:07;;;;;;;0.80;0.65;;;;;;;;;;10381955;28;20574;-84
2023/02/26 14:02:35;;;;;;;3.30;1.40;;;;;;;;;;10391307;28;20524;-83
2023/02/26 14:07:49;;;;;;;2.58;1.58;;;;;;;;;;10384728;28;20803;-84
2023/02/26 14:13:08;;;;;;;1.60;1.00;;;;;;;;;;10385294;28;20845;-84
2023/02/26 14:18:41;;;;;;;2.65;1.60;;;;;;;;;;10387967;28;20492;-84
2023/02/26 14:23:48;;;;;;;1.67;1.05;;;;;;;;;;10366871;28;20483;-84
2023/02/26 14:28:58;;;;;;;0.98;0.80;;;;;;;;;;10394037;28;20593;-84
2023/02/26 14:34:12;;;;;;;1.63;1.00;;;;;;;;;;10403603;28;20500;-84
2023/02/26 14:39:28;;;;;;;3.47;0.80;;;;;;;;;;10394740;28;20490;-86
2023/02/26 14:44:34;;;;;;;2.20;0.93;;;;;;;;;;10398731;28;20520;-85
2023/02/26 14:49:40;;;;;;;2.50;1.40;;;;;;;;;;10400313;28;20470;-84
2023/02/26 14:54:53;;;;;;;1.70;1.30;;;;;;;;;;10401578;28;20952;-85
2023/02/26 15:00:17;;;;;;;1.30;0.90;;;;;;;;;;10408281;28;20555;-85
2023/02/26 15:05:39;;;;;;;2.13;1.67;;;;;;;;;;10400042;28;20511;-86
2023/02/26 15:10:53;;;;;;;1.30;1.10;;;;;;;;;;10401491;28;20516;-87
2023/02/26 15:15:58;;;;;;;3.30;1.85;;;;;;;;;;10394670;28;20411;-83
2023/02/26 15:21:10;;;;;;;1.40;0.80;;;;;;;;;;10406385;28;20850;-85
2023/02/26 15:26:19;;;;;;;3.33;1.97;;;;;;;;;;10402338;28;20481;-86
2023/02/26 15:31:28;;;;;;;3.83;1.90;;;;;;;;;;10395962;28;20589;-87
2023/02/26 15:36:32;;;;;;;1.20;0.90;;;;;;;;;;10402033;28;20595;-87
2023/02/26 15:41:34;;;;;;;0.80;0.80;;;;;;;;;;10401715;28;20565;-83
2023/02/26 15:46:39;;;;;;;1.80;0.80;;;;;;;;;;10395375;28;20417;-86
2023/02/26 15:51:46;;;;;;;1.60;1.17;;;;;;;;;;10410156;28;20540;-85
2023/02/26 15:56:48;;;;;;;1.88;0.82;;;;;;;;;;10403557;28;20525;-85
2023/02/26 16:01:50;;;;;;;1.13;0.80;;;;;;;;;;10397201;28;20988;-84
2023/02/26 16:06:56;;;;;;;2.40;2.13;;;;;;;;;;10391645;28;20892;-84
2023/02/26 16:12:00;;;;;;;1.60;1.00;;;;;;;;;;10393053;28;20419;-84
2023/02/26 16:17:05;;;;;;;1.53;1.20;;;;;;;;;;10390942;28;20420;-83
2023/02/26 16:22:17;;;;;;;1.23;1.10;;;;;;;;;;10398029;28;20429;-87
2023/02/26 16:27:19;;;;;;;1.63;0.88;;;;;;;;;;10395056;28;20402;-85
2023/02/26 16:32:21;;;;;;;2.05;1.00;;;;;;;;;;10392501;28;20897;-86
2023/02/26 16:37:27;;;;;;;1.80;0.80;;;;;;;;;;10399176;28;20425;-84
2023/02/26 16:42:37;;;;;;;1.00;0.90;;;;;;;;;;10389777;28;21007;-82
2023/02/26 16:47:40;;;;;;;1.40;0.90;;;;;;;;;;10389536;28;20972;-85
2023/02/26 16:52:43;;;;;;;3.63;0.93;;;;;;;;;;10390760;28;20452;-86
2023/02/26 16:57:47;;;;;;;2.00;1.38;;;;;;;;;;10391636;28;20412;-86
2023/02/26 17:02:50;;;;;;;1.52;1.35;;;;;;;;;;10387036;28;20498;-83
2023/02/26 17:08:05;;;;;;;2.25;1.63;;;;;;;;;;10395268;28;20873;-82
2023/02/26 17:13:15;;;;;;;2.17;1.63;;;;;;;;;;10378426;28;20521;-82
2023/02/26 17:18:17;;;;;;;3.25;2.13;;;;;;;;;;10388963;28;20486;-83
2023/02/26 17:23:23;;;;;;;2.67;1.90;;;;;;;;;;10341757;28;20482;-83
2023/02/26 17:28:28;;;;;;;4.93;2.85;;;;;;;;;;10378649;28;20424;-82
2023/02/26 17:33:30;;;;;;;3.90;1.70;;;;;;;;;;10390473;28;20503;-83
2023/02/26 17:38:34;;;;;;;2.90;2.00;;;;;;;;;;10396476;28;20480;-86
2023/02/26 17:43:35;;;;;;;4.43;2.60;;;;;;;;;;10388596;28;20865;-85
2023/02/26 17:48:37;;;;;;;2.40;1.77;;;;;;;;;;10395178;28;20407;-85
2023/02/26 17:53:41;;;;;;;2.95;1.60;;;;;;;;;;10395183;28;20451;-83
2023/02/26 17:58:44;;;;;;;4.77;1.90;;;;;;;;;;10398936;28;20936;-82
2023/02/26 18:03:46;;;;;;;2.20;1.80;;;;;;;;;;10394277;28;20785;-87
2023/02/26 18:08:49;;;;;;;2.93;2.13;;;;;;;;;;10394635;28;20508;-84
2023/02/26 18:13:53;;;;;;;2.97;2.08;;;;;;;;;;10398643;28;20978;-84
2023/02/26 18:18:55;;;;;;;2.93;1.80;;;;;;;;;;10392483;28;20979;-85
2023/02/26 18:23:59;;;;;;;1.88;1.58;;;;;;;;;;10388310;28;20426;-85
2023/02/26 18:29:01;;;;;;;2.65;2.00;;;;;;;;;;10385873;28;20455;-85
2023/02/26 18:34:04;;;;;;;6.43;2.65;;;;;;;;;;10397325;28;20415;-85
2023/02/26 18:39:15;;;;;;;6.15;3.85;;;;;;;;;;10385162;28;20518;-83
2023/02/26 18:44:17;;;;;;;4.53;2.70;;;;;;;;;;10390704;28;20783;-84
2023/02/26 18:49:22;;;;;;;4.90;2.67;;;;;;;;;;10397878;28;20475;-86
2023/02/26 18:54:25;;;;;;;2.75;1.95;;;;;;;;;;10395814;28;20412;-87
2023/02/26 18:59:27;;;;;;;2.80;1.90;;;;;;;;;;10392896;28;20463;-86
2023/02/26 19:04:29;;;;;;;3.60;2.40;;;;;;;;;;10386042;28;20614;-86
2023/02/26 19:09:33;;;;;;;2.40;2.05;;;;;;;;;;10386547;28;20473;-86
2023/02/26 19:14:35;;;;;;;7.53;3.50;;;;;;;;;;10377377;28;20431;-86
2023/02/26 19:19:39;;;;;;;5.88;3.20;;;;;;;;;;10399119;28;20493;-83
2023/02/26 19:24:43;;;;;;;4.00;3.10;;;;;;;;;;10402744;28;20410;-82
2023/02/26 19:29:45;;;;;;;3.10;1.50;;;;;;;;;;10400379;28;20519;-83
2023/02/26 19:34:47;;;;;;;2.43;1.70;;;;;;;;;;10392585;28;20414;-84
2023/02/26 19:39:50;;;;;;;3.37;2.37;;;;;;;;;;10391125;28;21004;-85
2023/02/26 19:44:52;;;;;;;2.85;2.00;;;;;;;;;;10390995;28;20471;-85
2023/02/26 19:49:54;;;;;;;2.63;1.50;;;;;;;;;;10388606;28;20415;-84
2023/02/26 19:54:58;;;;;;;2.47;1.70;;;;;;;;;;10388537;28;20417;-83
2023/02/26 20:00:01;;;;;;;2.53;1.80;;;;;;;;;;10389647;28;20504;-85
2023/02/26 20:05:04;;;;;;;2.83;1.48;;;;;;;;;;10387640;28;20467;-84
2023/02/26 20:10:09;;;;;;;2.42;1.60;;;;;;;;;;10389284;28;20457;-84
2023/02/26 20:15:12;;;;;;;2.00;1.65;;;;;;;;;;10384267;28;20522;-84
2023/02/26 20:20:14;;;;;;;2.00;1.55;;;;;;;;;;10389692;28;20446;-84
2023/02/26 20:25:18;;;;;;;2.65;1.58;;;;;;;;;;10390089;28;20473;-85
2023/02/26 20:30:20;;;;;;;2.38;1.70;;;;;;;;;;10385924;28;20436;-84
2023/02/26 20:35:23;;;;;;;2.17;1.80;;;;;;;;;;10387408;28;20401;-84
2023/02/26 20:40:27;;;;;;;2.38;1.33;;;;;;;;;;10394456;28;20428;-84
2023/02/26 20:45:29;;;;;;;1.48;1.10;;;;;;;;;;10383930;28;20428;-83
2023/02/26 20:50:31;;;;;;;1.17;0.90;;;;;;;;;;10385480;28;20419;-85
2023/02/26 20:55:34;;;;;;;1.05;0.90;;;;;;;;;;10391611;28;20919;-85
2023/02/26 21:00:36;;;;;;;2.10;0.70;;;;;;;;;;10383607;28;20466;-84
2023/02/26 21:05:40;;;;;;;2.80;0.90;;;;;;;;;;10394429;28;20455;-85
2023/02/26 21:10:43;;;;;;;1.92;0.98;;;;;;;;;;10385923;28;20428;-85
2023/02/26 21:15:45;;;;;;;1.40;0.90;;;;;;;;;;10389894;28;20527;-84
2023/02/26 21:20:49;;;;;;;0.87;0.80;;;;;;;;;;10391647;28;20452;-85
2023/02/26 21:25:52;;;;;;;2.28;1.05;;;;;;;;;;10386154;28;20449;-85
2023/02/26 21:30:54;;;;;;;1.33;1.00;;;;;;;;;;10382971;28;20423;-83
2023/02/26 21:35:56;;;;;;;1.52;1.05;;;;;;;;;;10382400;28;20426;-86
2023/02/26 21:41:01;;;;;;;1.40;1.00;;;;;;;;;;10384245;28;20431;-84
2023/02/26 21:46:03;;;;;;;1.35;1.05;;;;;;;;;;10377780;28;20949;-85
2023/02/26 21:51:05;;;;;;;3.10;1.30;;;;;;;;;;10383413;28;20803;-84
2023/02/26 21:56:08;;;;;;;1.83;1.10;;;;;;;;;;10388157;28;20414;-85
2023/02/26 22:01:10;;;;;;;2.50;1.30;;;;;;;;;;10382461;28;20500;-85
2023/02/26 22:06:12;;;;;;;1.23;1.00;;;;;;;;;;10378535;28;20916;-83
2023/02/26 22:11:16;;;;;;;1.45;1.02;;;;;;;;;;10374454;28;20454;-85
2023/02/26 22:16:18;;;;;;;0.93;0.90;;;;;;;;;;10381665;28;20425;-84
2023/02/26 22:21:22;;;;;;;1.00;0.80;;;;;;;;;;10382209;28;20429;-85
2023/02/26 22:26:25;;;;;;;1.13;0.90;;;;;;;;;;10377791;28;20622;-84
2023/02/26 22:31:27;;;;;;;1.57;1.00;;;;;;;;;;10378501;28;20417;-85
2023/02/26 22:36:30;;;;;;;1.17;0.90;;;;;;;;;;10391728;28;20959;-85
2023/02/26 22:41:33;;;;;;;1.88;1.00;;;;;;;;;;10390891;28;20489;-84
2023/02/26 22:46:35;;;;;;;1.73;1.08;;;;;;;;;;10392614;28;20495;-84
2023/02/26 22:51:37;;;;;;;1.05;0.90;;;;;;;;;;10387761;28;20425;-84
2023/02/26 22:56:40;;;;;;;1.27;0.80;;;;;;;;;;10399870;28;21072;-85
2023/02/26 23:01:42;;;;;;;1.50;0.80;;;;;;;;;;10399641;28;20825;-85
2023/02/26 23:06:44;;;;;;;2.15;1.00;;;;;;;;;;10391716;28;20830;-85
2023/02/26 23:11:47;;;;;;;3.70;0.90;;;;;;;;;;10393783;28;20409;-85
2023/02/26 23:16:49;;;;;;;1.10;0.90;;;;;;;;;;10403316;28;20803;-85
2023/02/26 23:21:51;;;;;;;1.88;1.13;;;;;;;;;;10405059;28;20541;-84
2023/02/26 23:26:56;;;;;;;1.67;1.27;;;;;;;;;;10399856;28;20466;-85
2023/02/26 23:31:58;;;;;;;1.80;1.30;;;;;;;;;;10396426;28;20437;-85
2023/02/26 23:37:00;;;;;;;2.72;1.20;;;;;;;;;;10398411;28;20417;-85
2023/02/26 23:42:03;;;;;;;1.42;1.10;;;;;;;;;;10393924;28;20780;-84
2023/02/26 23:47:05;;;;;;;2.42;1.30;;;;;;;;;;10400780;28;20413;-85
2023/02/26 23:52:07;;;;;;;1.77;1.23;;;;;;;;;;10395644;28;20408;-85
2023/02/26 23:57:10;;;;;;;2.60;1.10;;;;;;;;;;10398267;28;20435;-84
